createdAt,value
2023-05-21T00:00:21.889Z,12.55
2023-05-21T00:02:48.528Z,12.52
2023-05-21T00:05:17.202Z,12.53
2023-05-21T00:07:44.531Z,12.52
2023-05-21T00:10:11.434Z,12.52
2023-05-21T00:12:37.998Z,12.56
2023-05-21T00:15:04.717Z,12.58
2023-05-21T00:17:31.220Z,12.54
2023-05-21T00:19:57.802Z,12.52
2023-05-21T00:22:24.300Z,12.51
2023-05-21T00:24:50.958Z,12.55
2023-05-21T00:27:17.576Z,12.53
2023-05-21T00:29:44.562Z,12.49
2023-05-21T00:32:11.342Z,12.44
2023-05-21T00:34:38.418Z,12.42
2023-05-21T00:37:05.112Z,12.40
2023-05-21T00:39:31.705Z,12.41
2023-05-21T00:41:58.155Z,12.45
2023-05-21T00:44:25.657Z,12.37
2023-05-21T00:46:56.695Z,12.35
2023-05-21T00:49:24.641Z,12.37
2023-05-21T00:51:52.063Z,12.39
2023-05-21T00:54:19.112Z,12.39
2023-05-21T00:56:46.732Z,12.40
2023-05-21T00:59:15.982Z,12.41
2023-05-21T01:01:45.941Z,12.43
2023-05-21T01:04:12.635Z,12.52
2023-05-21T01:06:39.185Z,12.49
2023-05-21T01:09:07.027Z,12.56
2023-05-21T01:11:43.072Z,12.58
2023-05-21T01:14:13.259Z,12.58
2023-05-21T01:16:42.443Z,12.63
2023-05-21T01:19:14.244Z,12.65
2023-05-21T01:21:44.917Z,12.63
2023-05-21T01:24:11.464Z,12.63
2023-05-21T01:26:38.838Z,12.65
2023-05-21T01:29:06.734Z,12.65
2023-05-21T01:31:45.676Z,12.63
2023-05-21T01:34:16.482Z,12.60
2023-05-21T01:36:53.719Z,12.57
2023-05-21T01:39:27.856Z,12.57
2023-05-21T01:41:56.360Z,12.51
2023-05-21T01:44:25.607Z,12.46
2023-05-21T01:46:54.628Z,12.51
2023-05-21T01:49:22.351Z,12.46
2023-05-21T01:51:52.228Z,12.52
2023-05-21T01:54:18.821Z,12.53
2023-05-21T01:56:46.192Z,12.48
2023-05-21T01:59:12.873Z,12.51
2023-05-21T02:01:39.515Z,12.52
2023-05-21T02:04:06.251Z,12.47
2023-05-21T02:06:32.813Z,12.46
2023-05-21T02:08:59.743Z,12.48
2023-05-21T02:11:26.948Z,12.47
2023-05-21T02:13:54.608Z,12.47
2023-05-21T02:16:22.554Z,12.48
2023-05-21T02:18:53.868Z,12.44
2023-05-21T02:21:20.843Z,12.47
2023-05-21T02:23:47.425Z,12.48
2023-05-21T02:26:13.906Z,12.48
2023-05-21T02:28:40.624Z,12.51
2023-05-21T02:31:07.229Z,12.45
2023-05-21T02:33:33.818Z,12.48
2023-05-21T02:36:00.420Z,12.44
2023-05-21T02:38:26.958Z,12.51
2023-05-21T02:40:53.661Z,12.46
2023-05-21T02:43:20.369Z,12.50
2023-05-21T02:45:47.030Z,12.47
2023-05-21T02:48:13.688Z,12.49
2023-05-21T02:50:40.354Z,12.48
2023-05-21T02:53:07.356Z,12.52
2023-05-21T02:55:34.106Z,12.44
2023-05-21T02:58:00.768Z,12.47
2023-05-21T03:00:27.243Z,12.52
2023-05-21T03:02:53.848Z,12.48
2023-05-21T03:05:20.861Z,12.46
2023-05-21T03:07:47.490Z,12.45
2023-05-21T03:10:14.053Z,12.46
2023-05-21T03:12:40.740Z,12.38
2023-05-21T03:15:07.764Z,12.39
2023-05-21T03:17:34.335Z,12.41
2023-05-21T03:20:00.824Z,12.40
2023-05-21T03:22:27.392Z,12.36
2023-05-21T03:24:53.980Z,12.34
2023-05-21T03:27:20.612Z,12.31
2023-05-21T03:29:47.214Z,12.33
2023-05-21T03:32:14.077Z,12.38
2023-05-21T03:34:40.809Z,12.34
2023-05-21T03:37:07.301Z,12.33
2023-05-21T03:39:33.867Z,12.39
2023-05-21T03:42:00.419Z,12.39
2023-05-21T03:44:26.986Z,12.36
2023-05-21T03:46:53.499Z,12.38
2023-05-21T03:49:20.901Z,12.40
2023-05-21T03:51:47.462Z,12.38
2023-05-21T03:54:13.920Z,12.40
2023-05-21T03:56:40.704Z,12.39
2023-05-21T03:59:07.253Z,12.38
2023-05-21T04:01:33.917Z,12.41
2023-05-21T04:04:00.765Z,12.42
2023-05-21T04:06:28.168Z,12.39
2023-05-21T04:08:54.717Z,12.41
2023-05-21T04:11:21.191Z,12.40
2023-05-21T04:13:48.268Z,12.40
2023-05-21T04:16:19.507Z,12.35
2023-05-21T04:18:47.189Z,12.30
2023-05-21T04:21:14.150Z,12.32
2023-05-21T04:23:40.784Z,12.32
2023-05-21T04:26:07.991Z,12.31
2023-05-21T04:28:35.559Z,12.24
2023-05-21T04:31:02.431Z,12.27
2023-05-21T04:33:29.092Z,12.31
2023-05-21T04:35:55.686Z,12.29
2023-05-21T04:38:22.234Z,12.30
2023-05-21T04:40:52.379Z,12.30
2023-05-21T04:43:25.851Z,12.29
2023-05-21T04:45:55.026Z,12.30
2023-05-21T04:48:24.918Z,12.34
2023-05-21T04:50:53.639Z,12.36
2023-05-21T04:53:20.817Z,12.37
2023-05-21T04:55:47.449Z,12.33
2023-05-21T04:58:14.003Z,12.38
2023-05-21T05:00:42.362Z,12.39
2023-05-21T05:03:09.171Z,12.38
2023-05-21T05:05:35.897Z,12.44
2023-05-21T05:08:02.795Z,12.45
2023-05-21T05:10:29.490Z,12.47
2023-05-21T05:12:56.170Z,12.44
2023-05-21T05:15:22.732Z,12.51
2023-05-21T05:17:50.589Z,12.51
2023-05-21T05:20:17.255Z,12.48
2023-05-21T05:22:43.723Z,12.56
2023-05-21T05:25:10.376Z,12.55
2023-05-21T05:27:38.522Z,12.61
2023-05-21T05:30:05.896Z,12.62
2023-05-21T05:32:32.490Z,12.64
2023-05-21T05:35:01.009Z,12.71
2023-05-21T05:37:28.691Z,12.76
2023-05-21T05:39:55.352Z,12.77
2023-05-21T05:42:21.910Z,12.79
2023-05-21T05:44:48.386Z,12.92
2023-05-21T05:47:16.119Z,12.98
2023-05-21T05:49:42.742Z,12.98
2023-05-21T05:52:09.311Z,13.09
2023-05-21T05:54:35.773Z,13.16
2023-05-21T05:57:02.419Z,13.18
2023-05-21T05:59:28.984Z,13.25
2023-05-21T06:01:55.600Z,13.33
2023-05-21T06:04:22.201Z,13.37
2023-05-21T06:06:48.779Z,13.41
2023-05-21T06:09:15.320Z,13.51
2023-05-21T06:11:41.923Z,13.58
2023-05-21T06:14:08.552Z,13.62
2023-05-21T06:16:35.230Z,13.67
2023-05-21T06:19:01.924Z,13.73
2023-05-21T06:21:29.139Z,13.75
2023-05-21T06:23:55.700Z,13.84
2023-05-21T06:26:22.168Z,13.79
2023-05-21T06:28:49.422Z,13.82
2023-05-21T06:31:16.501Z,13.90
2023-05-21T06:33:43.150Z,13.97
2023-05-21T06:36:09.906Z,13.95
2023-05-21T06:38:36.461Z,14.08
2023-05-21T06:41:04.269Z,14.13
2023-05-21T06:43:30.918Z,14.22
2023-05-21T06:46:00.276Z,14.25
2023-05-21T06:48:27.354Z,14.37
2023-05-21T06:50:54.071Z,14.40
2023-05-21T06:53:22.163Z,14.54
2023-05-21T06:55:49.294Z,14.69
2023-05-21T06:58:16.684Z,14.66
2023-05-21T07:00:43.237Z,14.91
2023-05-21T07:03:09.957Z,15.03
2023-05-21T07:05:36.982Z,15.08
2023-05-21T07:08:03.794Z,15.16
2023-05-21T07:10:30.619Z,15.30
2023-05-21T07:12:57.271Z,15.40
2023-05-21T07:15:23.875Z,15.48
2023-05-21T07:17:50.514Z,15.57
2023-05-21T07:20:17.239Z,15.67
2023-05-21T07:22:43.905Z,15.77
2023-05-21T07:25:10.644Z,15.90
2023-05-21T07:27:37.326Z,15.97
2023-05-21T07:30:04.426Z,16.06
2023-05-21T07:32:31.065Z,15.96
2023-05-21T07:35:02.049Z,16.13
2023-05-21T07:37:28.852Z,16.23
2023-05-21T07:39:57.453Z,16.32
2023-05-21T07:42:24.255Z,16.45
2023-05-21T07:44:54.298Z,16.57
2023-05-21T07:47:26.789Z,16.50
2023-05-21T07:49:56.237Z,16.45
2023-05-21T07:52:23.090Z,16.51
2023-05-21T07:54:57.340Z,16.48
2023-05-21T07:57:24.074Z,16.38
2023-05-21T07:59:51.548Z,16.30
2023-05-21T08:02:18.172Z,16.45
2023-05-21T08:04:44.862Z,16.26
2023-05-21T08:07:15.299Z,16.22
2023-05-21T08:09:41.893Z,16.22
2023-05-21T08:12:08.562Z,16.37
2023-05-21T08:14:35.152Z,16.48
2023-05-21T08:17:01.784Z,16.47
2023-05-21T08:19:30.054Z,16.61
2023-05-21T08:21:56.840Z,16.57
2023-05-21T08:24:24.299Z,16.67
2023-05-21T08:26:57.402Z,16.61
2023-05-21T08:29:24.067Z,16.76
2023-05-21T08:31:50.749Z,16.94
2023-05-21T08:34:18.715Z,17.03
2023-05-21T08:36:46.358Z,17.19
2023-05-21T08:39:13.410Z,17.28
2023-05-21T08:41:40.592Z,17.47
2023-05-21T08:44:12.134Z,17.61
2023-05-21T08:46:41.047Z,17.77
2023-05-21T08:49:12.782Z,17.97
2023-05-21T08:51:39.726Z,18.14
2023-05-21T08:54:07.331Z,18.37
2023-05-21T08:56:34.823Z,18.43
2023-05-21T08:59:02.832Z,18.54
2023-05-21T09:01:32.223Z,18.56
2023-05-21T09:04:12.161Z,18.85
2023-05-21T09:06:47.035Z,18.82
2023-05-21T09:09:34.036Z,18.97
2023-05-21T09:12:01.103Z,19.22
2023-05-21T09:14:28.505Z,19.32
2023-05-21T09:16:55.223Z,19.50
2023-05-21T09:19:22.628Z,19.42
2023-05-21T09:21:53.750Z,19.64
2023-05-21T09:24:23.146Z,19.25
2023-05-21T09:26:49.942Z,19.55
2023-05-21T09:29:16.582Z,19.63
2023-05-21T09:31:46.588Z,20.04
2023-05-21T09:34:19.467Z,20.03
2023-05-21T09:36:47.210Z,20.15
2023-05-21T09:39:28.023Z,20.33
2023-05-21T09:41:57.292Z,20.31
2023-05-21T09:44:24.419Z,20.46
2023-05-21T09:46:51.436Z,20.38
2023-05-21T09:49:26.634Z,20.71
2023-05-21T09:51:59.599Z,20.65
2023-05-21T09:54:30.947Z,20.67
2023-05-21T09:56:57.765Z,20.60
2023-05-21T09:59:24.517Z,20.81
2023-05-21T10:01:53.028Z,20.99
2023-05-21T10:04:25.462Z,20.94
2023-05-21T10:06:52.928Z,21.17
2023-05-21T10:09:20.591Z,21.39
2023-05-21T10:11:49.651Z,21.46
2023-05-21T10:14:25.655Z,21.68
2023-05-21T10:16:54.353Z,21.93
2023-05-21T10:19:22.721Z,21.90
2023-05-21T10:21:51.953Z,22.05
2023-05-21T10:24:19.388Z,21.99
2023-05-21T10:26:49.553Z,21.88
2023-05-21T10:29:19.394Z,22.19
2023-05-21T10:31:50.252Z,22.36
2023-05-21T10:34:17.592Z,22.54
2023-05-21T10:36:45.227Z,22.61
2023-05-21T10:39:15.847Z,22.57
2023-05-21T10:42:38.022Z,22.72
2023-05-21T10:45:31.843Z,23.01
2023-05-21T10:48:34.063Z,23.09
2023-05-21T10:51:13.201Z,23.24
2023-05-21T10:53:46.754Z,23.41
2023-05-21T10:56:22.504Z,23.49
2023-05-21T10:59:22.525Z,23.58
2023-05-21T11:01:53.182Z,23.66
2023-05-21T11:04:27.158Z,24.01
2023-05-21T11:07:00.337Z,23.93
2023-05-21T11:09:30.867Z,24.08
2023-05-21T11:12:01.669Z,24.02
2023-05-21T11:14:43.677Z,24.03
2023-05-21T11:17:16.553Z,24.20
2023-05-21T11:19:53.009Z,24.19
2023-05-21T11:22:36.295Z,24.24
2023-05-21T11:25:06.781Z,24.20
2023-05-21T11:27:40.347Z,24.51
2023-05-21T11:37:25.726Z,24.85
2023-05-21T11:39:52.921Z,24.96
2023-05-21T11:46:14.365Z,24.98
2023-05-21T11:48:42.526Z,25.00
2023-05-21T11:51:12.208Z,25.03
2023-05-21T11:53:39.480Z,24.97
2023-05-21T11:56:09.958Z,25.00
2023-05-21T11:58:36.550Z,25.02
2023-05-21T12:01:03.330Z,25.15
2023-05-21T12:03:35.207Z,25.28
2023-05-21T12:06:06.817Z,25.24
2023-05-21T12:08:33.775Z,25.48
2023-05-21T12:11:01.982Z,25.36
2023-05-21T12:13:29.037Z,25.48
2023-05-21T12:15:55.878Z,25.60
2023-05-21T12:18:23.406Z,25.61
2023-05-21T12:20:52.265Z,25.66
2023-05-21T12:23:21.087Z,25.65
2023-05-21T12:25:47.671Z,25.80
2023-05-21T12:28:15.468Z,25.82
2023-05-21T12:30:43.411Z,25.84
2023-05-21T12:33:12.341Z,25.88
2023-05-21T12:35:40.640Z,25.98
2023-05-21T12:38:10.725Z,25.95
2023-05-21T12:40:38.999Z,25.74
2023-05-21T12:43:06.585Z,25.73
2023-05-21T12:45:34.110Z,25.68
2023-05-21T12:48:03.848Z,25.80
2023-05-21T12:50:30.769Z,25.56
2023-05-21T12:52:58.561Z,25.52
2023-05-21T12:55:29.063Z,25.67
2023-05-21T12:58:06.273Z,25.69
2023-05-21T13:00:33.604Z,25.92
2023-05-21T13:03:02.083Z,25.93
2023-05-21T13:05:29.272Z,26.04
2023-05-21T13:07:55.968Z,26.08
2023-05-21T13:10:22.803Z,26.32
2023-05-21T13:12:49.492Z,26.30
2023-05-21T13:15:16.601Z,26.28
2023-05-21T13:17:43.358Z,26.29
2023-05-21T13:20:17.039Z,26.45
2023-05-21T13:22:47.257Z,26.25
2023-05-21T13:25:16.954Z,26.27
2023-05-21T13:27:45.110Z,26.28
2023-05-21T13:30:12.299Z,26.41
2023-05-21T13:32:40.726Z,26.58
2023-05-21T13:35:07.892Z,26.41
2023-05-21T13:37:37.951Z,26.49
2023-05-21T13:40:06.543Z,26.56
2023-05-21T13:42:34.462Z,26.61
2023-05-21T13:45:01.450Z,26.72
2023-05-21T13:47:28.351Z,26.57
2023-05-21T13:49:55.121Z,26.51
2023-05-21T13:52:21.963Z,26.54
2023-05-21T13:54:49.131Z,26.45
2023-05-21T13:57:16.123Z,26.38
2023-05-21T13:59:42.915Z,26.34
2023-05-21T14:02:10.587Z,26.58
2023-05-21T14:04:39.241Z,26.47
2023-05-21T14:07:07.206Z,26.35
2023-05-21T14:09:34.703Z,26.42
2023-05-21T14:12:01.847Z,26.51
2023-05-21T14:14:28.664Z,26.51
2023-05-21T14:16:55.562Z,26.67
2023-05-21T14:19:23.587Z,26.57
2023-05-21T14:21:53.593Z,26.45
2023-05-21T14:24:20.592Z,26.45
2023-05-21T14:26:47.361Z,26.47
2023-05-21T14:29:14.474Z,26.56
2023-05-21T14:31:41.475Z,26.69
2023-05-21T14:34:09.199Z,26.62
2023-05-21T14:36:36.609Z,26.61
2023-05-21T14:39:03.752Z,26.49
2023-05-21T14:41:30.499Z,26.49
2023-05-21T14:43:57.645Z,26.34
2023-05-21T14:46:24.653Z,26.43
2023-05-21T14:48:51.545Z,26.29
2023-05-21T14:51:18.509Z,26.18
2023-05-21T14:53:45.184Z,26.04
2023-05-21T14:56:11.893Z,26.12
2023-05-21T14:58:38.587Z,26.12
2023-05-21T15:01:05.653Z,26.16
2023-05-21T15:03:32.423Z,26.11
2023-05-21T15:05:59.276Z,26.17
2023-05-21T15:08:26.114Z,26.46
2023-05-21T15:10:52.847Z,26.35
2023-05-21T15:13:19.674Z,26.27
2023-05-21T15:15:46.444Z,26.51
2023-05-21T15:18:13.182Z,26.69
2023-05-21T15:20:39.914Z,26.48
2023-05-21T15:23:16.772Z,26.45
2023-05-21T15:25:44.498Z,26.55
2023-05-21T15:28:12.469Z,26.60
2023-05-21T15:30:39.836Z,26.66
2023-05-21T15:33:06.932Z,26.56
2023-05-21T15:35:35.547Z,26.65
2023-05-21T15:38:05.879Z,26.64
2023-05-21T15:40:32.698Z,26.56
2023-05-21T15:42:59.753Z,26.49
2023-05-21T15:45:26.514Z,26.34
2023-05-21T15:47:53.487Z,26.31
2023-05-21T15:50:23.095Z,26.26
2023-05-21T15:52:52.304Z,26.15
2023-05-21T15:55:20.222Z,26.11
2023-05-21T15:57:47.427Z,26.04
2023-05-21T16:00:14.533Z,25.96
2023-05-21T16:02:42.236Z,25.79
2023-05-21T16:05:09.464Z,25.85
2023-05-21T16:07:38.122Z,25.84
2023-05-21T16:10:06.495Z,25.86
2023-05-21T16:12:33.965Z,25.84
2023-05-21T16:15:00.888Z,25.85
2023-05-21T16:17:27.714Z,25.86
2023-05-21T16:30:37.721Z,25.81
2023-05-21T16:39:06.237Z,25.05
2023-05-21T16:45:00.459Z,24.87
2023-05-21T17:05:19.854Z,23.45
2023-05-21T17:07:29.855Z,23.17
2023-05-21T17:09:56.570Z,22.88
2023-05-21T17:12:23.889Z,22.89
2023-05-21T17:14:52.284Z,22.66
2023-05-21T17:17:19.091Z,22.62
2023-05-21T17:19:45.817Z,22.43
2023-05-21T17:22:12.737Z,22.45
2023-05-21T17:25:27.975Z,22.26
2023-05-21T17:33:58.703Z,22.05
2023-05-21T17:37:01.764Z,22.06
2023-05-21T17:40:22.054Z,22.03
2023-05-21T17:45:09.882Z,21.90
2023-05-21T17:57:36.175Z,21.57
2023-05-21T18:00:06.884Z,21.51
2023-05-21T18:02:33.735Z,21.48
2023-05-21T18:05:00.597Z,21.52
2023-05-21T18:07:27.329Z,21.37
2023-05-21T18:09:54.034Z,21.46
2023-05-21T18:12:20.741Z,21.37
2023-05-21T18:14:47.702Z,21.41
2023-05-21T18:17:14.473Z,21.32
2023-05-21T18:19:41.194Z,21.41
2023-05-21T18:22:08.271Z,21.24
2023-05-21T18:24:36.788Z,21.26
2023-05-21T18:27:03.890Z,21.29
2023-05-21T18:29:30.607Z,21.24
2023-05-21T18:31:57.503Z,21.19
2023-05-21T18:34:24.306Z,21.05
2023-05-21T18:36:51.008Z,21.16
2023-05-21T18:39:17.745Z,21.01
2023-05-21T18:41:44.707Z,20.99
2023-05-21T18:44:11.636Z,21.05
2023-05-21T18:46:38.479Z,20.96
2023-05-21T18:49:05.619Z,21.08
2023-05-21T18:51:32.785Z,20.87
2023-05-21T18:53:59.525Z,20.85
2023-05-21T18:56:26.247Z,20.79
2023-05-21T18:58:52.983Z,20.65
2023-05-21T19:01:20.118Z,20.58
2023-05-21T19:03:46.928Z,20.56
2023-05-21T19:06:13.937Z,20.55
2023-05-21T19:08:41.661Z,20.45
2023-05-21T19:11:08.573Z,20.35
2023-05-21T19:13:35.918Z,20.36
2023-05-21T19:16:02.786Z,20.25
2023-05-21T19:18:31.948Z,20.28
2023-05-21T19:21:00.885Z,20.08
2023-05-21T19:23:35.730Z,20.05
2023-05-21T19:27:32.825Z,20.06
2023-05-21T19:34:13.985Z,19.84
2023-05-21T19:43:00.044Z,19.97
2023-05-21T20:02:32.643Z,19.36
2023-05-21T20:08:04.552Z,19.23
2023-05-21T20:10:31.278Z,19.24
2023-05-21T20:12:57.945Z,19.20
2023-05-21T20:15:24.629Z,19.27
2023-05-21T20:17:51.304Z,19.13
2023-05-21T20:20:19.154Z,19.15
2023-05-21T20:22:46.155Z,19.24
2023-05-21T20:25:43.888Z,19.08
2023-05-21T20:28:55.208Z,19.13
2023-05-21T20:31:25.599Z,19.07
2023-05-21T20:34:17.447Z,19.18
2023-05-21T20:37:02.884Z,19.13
2023-05-21T20:45:50.851Z,19.03
2023-05-21T20:48:55.105Z,19.11
2023-05-21T20:54:25.227Z,18.97
2023-05-21T20:56:54.958Z,18.97
2023-05-21T20:59:21.576Z,19.03
2023-05-21T21:01:48.196Z,19.04
2023-05-21T21:04:14.798Z,19.06
2023-05-21T21:06:41.334Z,19.05
2023-05-21T21:09:08.675Z,18.96
2023-05-21T21:11:35.217Z,18.94
2023-05-21T21:14:02.767Z,18.99
2023-05-21T21:16:29.416Z,18.93
2023-05-21T21:18:56.198Z,18.85
2023-05-21T21:21:22.853Z,18.86
2023-05-21T21:23:49.486Z,18.88
2023-05-21T21:26:17.234Z,18.84
2023-05-21T21:28:45.430Z,18.84
2023-05-21T21:31:13.222Z,18.77
2023-05-21T21:33:39.807Z,18.76
2023-05-21T21:36:06.679Z,18.75
2023-05-21T21:38:33.232Z,18.73
2023-05-21T21:40:59.791Z,18.69
2023-05-21T21:43:26.381Z,18.66
2023-05-21T21:45:53.016Z,18.63
2023-05-21T21:48:19.598Z,18.55
2023-05-21T21:50:46.155Z,18.47
2023-05-21T21:53:14.149Z,18.50
2023-05-21T21:55:40.743Z,18.48
2023-05-21T21:58:07.276Z,18.48
2023-05-21T22:00:33.851Z,18.41
2023-05-21T22:03:00.756Z,18.35
2023-05-21T22:05:30.755Z,18.34
2023-05-21T22:07:57.327Z,18.30
2023-05-21T22:10:23.863Z,18.27
2023-05-21T22:12:50.445Z,18.27
2023-05-21T22:15:24.457Z,18.24
2023-05-21T22:17:52.144Z,18.23
2023-05-21T22:20:19.220Z,18.17
2023-05-21T22:22:46.364Z,18.14
2023-05-21T22:25:12.943Z,17.99
2023-05-21T22:27:40.329Z,17.98
2023-05-21T22:30:08.161Z,17.85
2023-05-21T22:32:34.872Z,17.86
2023-05-21T22:35:02.586Z,17.82
2023-05-21T22:37:29.204Z,17.74
2023-05-21T22:39:55.780Z,17.76
2023-05-21T22:42:22.405Z,17.75
2023-05-21T22:44:48.993Z,17.73
2023-05-21T22:47:16.322Z,17.69
2023-05-21T22:49:45.685Z,17.63
2023-05-21T22:52:12.247Z,17.64
2023-05-21T22:54:38.829Z,17.62
2023-05-21T22:57:05.713Z,17.55
2023-05-21T22:59:33.110Z,17.57
2023-05-21T23:01:59.814Z,17.50
2023-05-21T23:04:42.645Z,17.49
2023-05-21T23:07:10.280Z,17.43
2023-05-21T23:09:36.855Z,17.42
2023-05-21T23:12:03.729Z,17.41
2023-05-21T23:14:30.322Z,17.32
2023-05-21T23:17:02.157Z,17.27
2023-05-21T23:19:29.606Z,17.27
2023-05-21T23:21:56.483Z,17.23
2023-05-21T23:24:23.345Z,17.20
2023-05-21T23:26:50.048Z,17.08
2023-05-21T23:29:16.657Z,17.10
2023-05-21T23:31:43.775Z,17.03
2023-05-21T23:34:10.801Z,17.07
2023-05-21T23:36:37.414Z,17.04
2023-05-21T23:39:04.018Z,17.04
2023-05-21T23:41:34.161Z,16.92
2023-05-21T23:44:00.862Z,16.94
2023-05-21T23:46:27.532Z,16.85
2023-05-21T23:48:54.215Z,16.88
2023-05-21T23:51:21.584Z,16.82
2023-05-21T23:53:48.222Z,16.78
2023-05-21T23:56:15.079Z,16.80
2023-05-21T23:58:41.741Z,16.79
